Terminal Aerodrome Forecast
Issued by NWS

Home | Current Version | Previous Version | Text Only | Print | Product List | Glossary On
Versions: 1 2 3 4 5 6 7 8 9 10 11 12 13 14 15 16 17 18 19 20 21
000
FTUS42 KTBW 011500 AAA
TAFPIE
TAF AMD
KPIE 011511Z 0115/0212 08006KT P6SM BKN008 BKN025
     FM011600 12007KT P6SM BKN025 BKN060
     FM012000 27006KT P6SM VCSH BKN040 BKN080
     FM020000 VRB04KT P6SM SCT045 BKN080
     FM020600 VRB04KT 4SM BR SCT012 SCT050=

USA.gov is the U.S. government's official web portal to all federal, state and local government web resources and services.